createdAt,value
2023-04-04T00:00:54.099Z,9.20
2023-04-04T00:03:22.274Z,8.85
2023-04-04T00:05:51.691Z,4.25
2023-04-04T00:08:19.881Z,5.10
2023-04-04T00:10:47.877Z,8.80
2023-04-04T00:13:17.308Z,9.52
2023-04-04T00:15:45.362Z,7.20
2023-04-04T00:18:13.515Z,6.35
2023-04-04T00:20:42.020Z,6.18
2023-04-04T00:23:11.113Z,4.57
2023-04-04T00:25:39.533Z,9.38
2023-04-04T00:28:07.590Z,7.07
2023-04-04T00:30:37.972Z,6.20
2023-04-04T00:33:06.520Z,7.30
2023-04-04T00:35:34.756Z,3.77
2023-04-04T00:38:02.836Z,6.97
2023-04-04T00:40:30.990Z,7.20
2023-04-04T00:43:00.623Z,9.55
2023-04-04T00:47:59.676Z,7.88
2023-04-04T00:50:27.836Z,11.55
2023-04-04T00:52:56.209Z,7.40
2023-04-04T00:55:24.504Z,6.43
2023-04-04T00:57:52.834Z,7.32
2023-04-04T01:00:21.409Z,7.25
2023-04-04T01:02:50.033Z,4.75
2023-04-04T01:05:19.909Z,9.07
2023-04-04T01:07:48.368Z,6.43
2023-04-04T01:10:16.620Z,7.45
2023-04-04T01:12:44.941Z,6.30
2023-04-04T01:15:13.095Z,8.98
2023-04-04T01:17:41.943Z,8.35
2023-04-04T01:20:13.373Z,5.40
2023-04-04T01:22:44.408Z,6.05
2023-04-04T01:25:13.092Z,8.02
2023-04-04T01:27:42.571Z,6.10
2023-04-04T01:32:44.769Z,5.20
2023-04-04T01:35:22.846Z,6.97
2023-04-04T01:37:56.893Z,5.80
2023-04-04T01:40:29.168Z,8.00
2023-04-04T01:42:59.210Z,10.80
2023-04-04T01:45:29.655Z,7.38
2023-04-04T01:47:58.284Z,5.90
2023-04-04T01:50:27.125Z,7.63
2023-04-04T01:52:55.234Z,6.80
2023-04-04T01:55:23.533Z,5.60
2023-04-04T01:57:52.244Z,8.18
2023-04-04T02:00:22.121Z,7.38
2023-04-04T02:02:50.700Z,5.25
2023-04-04T02:05:18.862Z,5.70
2023-04-04T02:07:49.999Z,6.22
2023-04-04T02:10:18.279Z,8.13
2023-04-04T02:12:46.723Z,4.30
2023-04-04T02:15:14.944Z,3.42
2023-04-04T02:17:48.747Z,4.75
2023-04-04T02:20:19.343Z,5.18
2023-04-04T02:22:53.609Z,5.28
2023-04-04T02:25:22.260Z,5.70
2023-04-04T02:27:50.546Z,3.83
2023-04-04T02:30:19.437Z,6.72
2023-04-04T02:32:50.344Z,8.75
2023-04-04T02:35:18.563Z,14.13
2023-04-04T02:37:48.023Z,7.72
2023-04-04T02:42:45.168Z,8.48
2023-04-04T02:45:14.632Z,5.80
2023-04-04T02:47:43.586Z,5.30
2023-04-04T02:50:13.187Z,6.88
2023-04-04T02:55:10.430Z,8.18
2023-04-04T02:57:38.474Z,8.55
2023-04-04T03:00:07.721Z,7.82
2023-04-04T03:02:36.028Z,8.02
2023-04-04T03:05:04.354Z,8.00
2023-04-04T03:07:33.800Z,7.90
2023-04-04T03:12:30.090Z,7.43
2023-04-04T03:14:58.156Z,8.35
2023-04-04T03:17:27.049Z,6.47
2023-04-04T03:19:55.156Z,6.72
2023-04-04T03:22:23.185Z,6.88
2023-04-04T03:24:52.700Z,7.90
2023-04-04T03:27:20.752Z,10.75
2023-04-04T03:29:48.783Z,7.03
2023-04-04T03:32:18.138Z,6.38
2023-04-04T03:34:46.483Z,5.90
2023-04-04T03:37:14.542Z,9.30
2023-04-04T03:39:42.596Z,7.75
2023-04-04T03:42:12.102Z,6.82
2023-04-04T03:47:08.984Z,5.18
2023-04-04T03:49:37.110Z,6.50
2023-04-04T03:52:05.544Z,5.00
2023-04-04T03:54:34.573Z,5.85
2023-04-04T03:57:04.164Z,8.70
2023-04-04T03:59:33.602Z,9.23
2023-04-04T04:02:01.900Z,7.00
2023-04-04T04:04:30.039Z,8.35
2023-04-04T04:06:58.539Z,6.60
2023-04-04T04:09:26.584Z,6.22
2023-04-04T04:11:54.646Z,4.88
2023-04-04T04:14:22.740Z,6.63
2023-04-04T04:16:52.250Z,7.68
2023-04-04T04:21:49.056Z,10.48
2023-04-04T04:24:17.321Z,4.60
2023-04-04T04:26:45.444Z,3.88
2023-04-04T04:29:13.525Z,8.50
2023-04-04T04:31:41.745Z,9.40
2023-04-04T04:34:11.253Z,5.32
2023-04-04T04:36:39.308Z,8.80
2023-04-04T04:39:07.664Z,8.93
2023-04-04T04:41:36.707Z,10.05
2023-04-04T04:44:04.793Z,6.95
2023-04-04T04:46:32.936Z,7.05
2023-04-04T04:49:01.131Z,5.95
2023-04-04T04:51:30.568Z,9.23
2023-04-04T04:53:58.654Z,7.85
2023-04-04T04:56:26.709Z,6.55
2023-04-04T04:58:54.747Z,5.82
2023-04-04T05:01:22.862Z,8.45
2023-04-04T05:03:52.913Z,7.88
2023-04-04T05:06:21.739Z,5.25
2023-04-04T05:08:51.192Z,5.32
2023-04-04T05:11:19.226Z,6.35
2023-04-04T05:13:47.240Z,6.40
2023-04-04T05:16:15.368Z,7.75
2023-04-04T05:18:43.456Z,9.02
2023-04-04T05:21:11.467Z,7.72
2023-04-04T05:23:39.687Z,8.63
2023-04-04T05:26:09.103Z,9.07
2023-04-04T05:28:37.240Z,8.68
2023-04-04T05:31:05.445Z,8.02
2023-04-04T05:33:33.520Z,8.45
2023-04-04T05:36:01.819Z,7.47
2023-04-04T05:38:31.009Z,7.72
2023-04-04T05:40:59.048Z,5.18
2023-04-04T05:43:28.639Z,6.05
2023-04-04T05:48:24.642Z,6.78
2023-04-04T05:50:52.706Z,6.05
2023-04-04T05:53:20.973Z,12.32
2023-04-04T05:55:52.500Z,8.45
2023-04-04T05:58:20.585Z,5.78
2023-04-04T06:00:49.981Z,7.18
2023-04-04T06:03:19.672Z,9.43
2023-04-04T06:05:52.300Z,10.35
2023-04-04T06:08:20.479Z,5.20
2023-04-04T06:10:48.681Z,6.60
2023-04-04T06:13:16.857Z,9.95
2023-04-04T06:15:44.962Z,19.35
2023-04-04T06:18:14.485Z,21.02
2023-04-04T06:23:10.495Z,6.00
2023-04-04T06:25:38.923Z,7.07
2023-04-04T06:28:07.915Z,7.20
2023-04-04T06:30:38.299Z,16.88
2023-04-04T06:33:07.041Z,7.65
2023-04-04T06:35:36.478Z,13.87
2023-04-04T06:40:33.590Z,8.55
2023-04-04T06:43:01.868Z,5.88
2023-04-04T06:45:33.313Z,8.63
2023-04-04T06:48:01.520Z,6.88
2023-04-04T06:50:32.238Z,8.23
2023-04-04T06:53:02.146Z,7.18
2023-04-04T06:55:30.256Z,8.13
2023-04-04T06:57:58.319Z,8.13
2023-04-04T07:00:26.555Z,5.05
2023-04-04T07:02:59.880Z,7.00
2023-04-04T07:05:28.024Z,5.43
2023-04-04T07:07:57.124Z,7.60
2023-04-04T07:10:27.041Z,5.35
2023-04-04T07:12:55.446Z,6.55
2023-04-04T07:15:23.544Z,5.50
2023-04-04T07:17:51.659Z,6.63
2023-04-04T07:20:19.967Z,7.03
2023-04-04T07:22:49.500Z,4.80
2023-04-04T07:27:46.888Z,7.55
2023-04-04T07:30:16.339Z,4.07
2023-04-04T07:35:12.633Z,4.97
2023-04-04T07:37:40.675Z,5.45
2023-04-04T07:40:12.398Z,6.63
2023-04-04T07:42:46.968Z,9.68
2023-04-04T07:45:15.550Z,7.05
2023-04-04T07:47:45.405Z,5.10
2023-04-04T07:50:13.881Z,5.22
2023-04-04T07:52:42.104Z,6.03
2023-04-04T07:55:10.689Z,10.18
2023-04-04T07:57:39.919Z,4.43
2023-04-04T08:00:11.726Z,5.10
2023-04-04T08:02:40.312Z,5.60
2023-04-04T08:05:09.937Z,4.30
2023-04-04T08:10:07.303Z,14.63
2023-04-04T08:12:35.409Z,9.27
2023-04-04T08:15:03.546Z,9.25
2023-04-04T08:17:33.227Z,8.80
2023-04-04T08:20:01.319Z,4.20
2023-04-04T08:22:29.381Z,6.75
2023-04-04T08:24:57.660Z,7.18
2023-04-04T08:27:25.827Z,6.43
2023-04-04T08:29:53.872Z,5.85
2023-04-04T08:32:22.216Z,4.82
2023-04-04T08:34:52.161Z,4.82
2023-04-04T08:37:20.221Z,5.18
2023-04-04T08:39:48.289Z,6.53
2023-04-04T08:42:20.566Z,7.82
2023-04-04T08:44:50.849Z,5.68
2023-04-04T08:47:19.742Z,3.90
2023-04-04T08:49:48.862Z,3.67
2023-04-04T08:52:21.639Z,6.60
2023-04-04T08:54:51.933Z,4.68
2023-04-04T08:57:20.090Z,4.05
2023-04-04T08:59:48.650Z,5.72
2023-04-04T09:02:24.442Z,4.30
2023-04-04T09:05:05.440Z,6.97
2023-04-04T09:07:38.813Z,4.10
2023-04-04T09:10:10.865Z,6.50
2023-04-04T09:12:42.972Z,5.15
2023-04-04T09:15:12.213Z,5.07
2023-04-04T09:17:40.416Z,5.70
2023-04-04T09:20:40.570Z,4.50
2023-04-04T09:23:14.045Z,6.43
2023-04-04T09:26:02.564Z,5.35
2023-04-04T09:28:32.163Z,4.75
2023-04-04T09:31:03.044Z,4.77
2023-04-04T09:33:34.264Z,6.55
2023-04-04T09:36:07.796Z,5.32
2023-04-04T09:38:38.915Z,5.68
2023-04-04T09:41:09.734Z,4.40
2023-04-04T09:43:38.484Z,5.50
2023-04-04T09:46:07.811Z,5.27
2023-04-04T09:48:37.714Z,4.22
2023-04-04T09:51:06.939Z,4.88
2023-04-04T09:53:42.128Z,8.93
2023-04-04T09:56:10.825Z,5.13
2023-04-04T09:58:46.378Z,7.10
2023-04-04T10:01:19.413Z,4.37
2023-04-04T10:03:53.559Z,5.38
2023-04-04T10:06:22.590Z,5.10
2023-04-04T10:08:52.172Z,7.20
2023-04-04T10:13:58.491Z,4.30
2023-04-04T10:16:27.347Z,3.92
2023-04-04T10:18:55.763Z,4.90
2023-04-04T10:21:25.024Z,5.55
2023-04-04T10:23:55.298Z,5.57
2023-04-04T10:26:25.972Z,5.45
2023-04-04T10:28:54.982Z,7.93
2023-04-04T10:31:25.255Z,4.15
2023-04-04T10:34:05.861Z,4.82
2023-04-04T10:36:41.685Z,8.23
2023-04-04T10:39:16.178Z,6.50
2023-04-04T10:41:46.697Z,7.90
2023-04-04T10:44:24.672Z,6.93
2023-04-04T10:46:55.441Z,5.65
2023-04-04T10:49:24.122Z,8.13
2023-04-04T10:51:56.984Z,6.70
2023-04-04T10:54:29.081Z,4.35
2023-04-04T10:57:01.481Z,4.40
2023-04-04T10:59:29.700Z,3.97
2023-04-04T11:01:59.445Z,4.63
2023-04-04T11:04:34.106Z,4.72
2023-04-04T11:07:17.202Z,6.18
2023-04-04T11:09:54.426Z,6.75
2023-04-04T11:12:24.295Z,5.15
2023-04-04T11:15:10.271Z,4.72
2023-04-04T11:18:21.499Z,6.68
2023-04-04T11:20:55.868Z,3.53
2023-04-04T11:23:24.387Z,4.07
2023-04-04T11:25:54.861Z,4.78
2023-04-04T11:28:45.811Z,5.63
2023-04-04T11:31:28.959Z,6.47
2023-04-04T11:33:59.474Z,7.35
2023-04-04T11:36:55.230Z,6.25
2023-04-04T11:39:27.319Z,4.43
2023-04-04T11:42:03.520Z,8.98
2023-04-04T11:44:33.357Z,4.95
2023-04-04T11:47:05.215Z,7.90
2023-04-04T11:49:36.503Z,4.60
2023-04-04T11:52:06.826Z,4.25
2023-04-04T11:54:35.262Z,8.60
2023-04-04T11:57:06.797Z,5.63
2023-04-04T11:59:35.680Z,4.70
2023-04-04T12:02:03.922Z,8.38
2023-04-04T12:04:32.954Z,5.30
2023-04-04T12:07:03.491Z,5.07
2023-04-04T12:09:31.585Z,6.18
2023-04-04T12:11:59.689Z,4.97
2023-04-04T12:14:29.103Z,5.43
2023-04-04T12:16:59.467Z,6.25
2023-04-04T12:19:29.712Z,6.38
2023-04-04T12:21:59.135Z,4.25
2023-04-04T12:24:27.681Z,5.40
2023-04-04T12:26:56.092Z,7.40
2023-04-04T12:29:27.451Z,4.38
2023-04-04T12:31:58.122Z,5.80
2023-04-04T12:37:04.769Z,5.28
2023-04-04T12:39:32.911Z,5.13
2023-04-04T12:42:03.575Z,4.90
2023-04-04T12:44:33.074Z,4.72
2023-04-04T12:49:32.889Z,5.43
2023-04-04T12:54:35.128Z,5.57
2023-04-04T12:57:05.644Z,5.97
2023-04-04T12:59:35.295Z,7.68
2023-04-04T13:02:07.977Z,5.10
2023-04-04T13:04:36.295Z,5.47
2023-04-04T13:07:04.989Z,6.10
2023-04-04T13:09:35.720Z,5.43
2023-04-04T13:12:08.513Z,9.13
2023-04-04T13:14:59.660Z,4.90
2023-04-04T13:17:44.141Z,5.55
2023-04-04T13:20:12.662Z,5.38
2023-04-04T13:22:42.192Z,4.18
2023-04-04T13:25:11.618Z,5.18
2023-04-04T13:30:10.361Z,4.93
2023-04-04T13:32:40.886Z,3.17
2023-04-04T13:37:37.272Z,6.70
2023-04-04T13:40:06.129Z,4.85
2023-04-04T13:42:35.376Z,5.68
2023-04-04T13:45:03.518Z,4.53
2023-04-04T13:47:31.571Z,9.13
2023-04-04T13:50:01.014Z,16.38
2023-04-04T13:54:57.453Z,4.97
2023-04-04T13:57:27.100Z,8.80
2023-04-04T13:59:56.351Z,4.85
2023-04-04T14:02:24.609Z,5.45
2023-04-04T14:04:52.797Z,5.50
2023-04-04T14:07:22.239Z,4.65
2023-04-04T14:12:18.147Z,5.03
2023-04-04T14:14:46.260Z,6.03
2023-04-04T14:17:14.288Z,4.05
2023-04-04T14:19:44.320Z,3.80
2023-04-04T14:22:12.426Z,4.75
2023-04-04T14:24:41.856Z,5.20
2023-04-04T14:29:38.557Z,8.63
2023-04-04T14:32:07.697Z,6.22
2023-04-04T14:34:35.761Z,8.57
2023-04-04T14:37:04.009Z,7.43
2023-04-04T14:39:33.138Z,7.25
2023-04-04T14:42:02.549Z,6.38
2023-04-04T14:47:00.538Z,6.30
2023-04-04T14:49:28.670Z,5.72
2023-04-04T14:51:56.793Z,4.82
2023-04-04T14:54:24.853Z,4.65
2023-04-04T14:56:52.924Z,7.50
2023-04-04T14:59:22.431Z,11.68
2023-04-04T15:04:18.621Z,6.60
2023-04-04T15:06:46.911Z,5.63
2023-04-04T15:09:16.802Z,4.85
2023-04-04T15:11:44.872Z,6.63
2023-04-04T15:14:12.953Z,4.50
2023-04-04T15:16:42.431Z,4.80
2023-04-04T15:21:39.371Z,4.68
2023-04-04T15:24:07.725Z,6.35
2023-04-04T15:26:35.834Z,7.82
2023-04-04T15:29:04.793Z,5.13
2023-04-04T15:31:33.032Z,5.32
2023-04-04T15:34:02.456Z,5.13
2023-04-04T15:36:31.338Z,5.68
2023-04-04T15:38:59.441Z,3.33
2023-04-04T15:41:27.458Z,4.22
2023-04-04T15:43:55.514Z,6.38
2023-04-04T15:46:23.664Z,5.15
2023-04-04T15:48:52.466Z,4.43
2023-04-04T15:51:22.133Z,9.23
2023-04-04T15:56:18.060Z,6.53
2023-04-04T15:58:46.165Z,7.32
2023-04-04T16:01:14.316Z,6.55
2023-04-04T16:03:44.815Z,7.28
2023-04-04T16:06:13.866Z,5.32
2023-04-04T16:08:44.458Z,6.28
2023-04-04T16:11:12.888Z,6.35
2023-04-04T16:13:40.957Z,7.32
2023-04-04T16:16:09.148Z,7.30
2023-04-04T16:18:37.938Z,7.15
2023-04-04T16:21:06.464Z,5.72
2023-04-04T16:23:34.652Z,6.18
2023-04-04T16:26:04.107Z,6.65
2023-04-04T16:28:32.200Z,6.28
2023-04-04T16:31:00.425Z,5.60
2023-04-04T16:33:28.560Z,6.60
2023-04-04T16:35:56.649Z,5.55
2023-04-04T16:38:24.733Z,6.38
2023-04-04T16:40:52.810Z,5.70
2023-04-04T16:43:22.179Z,5.97
2023-04-04T16:45:50.461Z,5.70
2023-04-04T16:48:18.519Z,3.92
2023-04-04T16:50:46.637Z,5.78
2023-04-04T16:53:14.720Z,6.50
2023-04-04T16:55:42.814Z,6.80
2023-04-04T16:58:10.861Z,7.30
2023-04-04T17:00:40.565Z,6.68
2023-04-04T17:03:08.767Z,7.72
2023-04-04T17:05:36.867Z,6.68
2023-04-04T17:08:05.192Z,8.30
2023-04-04T17:10:33.258Z,11.55
2023-04-04T17:13:02.047Z,8.65
2023-04-04T17:15:30.247Z,9.82
2023-04-04T17:17:59.671Z,9.43
2023-04-04T17:20:29.833Z,7.32
2023-04-04T17:22:58.960Z,6.72
2023-04-04T17:25:29.153Z,6.07
2023-04-04T17:27:57.650Z,7.15
2023-04-04T17:30:26.483Z,11.35
2023-04-04T17:32:55.194Z,8.57
2023-04-04T17:35:24.689Z,9.18
2023-04-04T17:37:52.923Z,6.63
2023-04-04T17:40:21.373Z,5.45
2023-04-04T17:42:49.415Z,6.55
2023-04-04T17:45:19.294Z,9.25
2023-04-04T17:47:47.395Z,10.23
2023-04-04T17:50:15.894Z,12.18
2023-04-04T17:52:45.652Z,8.07
2023-04-04T17:55:13.798Z,7.28
2023-04-04T17:57:44.845Z,7.95
2023-04-04T18:00:15.551Z,7.15
2023-04-04T18:02:43.714Z,9.20
2023-04-04T18:05:12.673Z,8.85
2023-04-04T18:07:41.279Z,14.95
2023-04-04T18:10:11.274Z,10.50
2023-04-04T18:12:39.439Z,11.05
2023-04-04T18:15:08.609Z,12.68
2023-04-04T18:17:36.822Z,13.68
2023-04-04T18:20:05.598Z,14.45
2023-04-04T18:22:34.577Z,12.15
2023-04-04T18:25:02.614Z,14.45
2023-04-04T18:27:32.234Z,12.35
2023-04-04T18:32:29.126Z,13.63
2023-04-04T18:34:57.263Z,15.00
2023-04-04T18:37:25.337Z,16.55
2023-04-04T18:39:53.579Z,17.58
2023-04-04T18:42:21.715Z,13.88
2023-04-04T18:44:53.322Z,14.15
2023-04-04T18:47:22.338Z,14.07
2023-04-04T18:49:50.569Z,16.98
2023-04-04T18:52:18.630Z,18.27
2023-04-04T18:54:46.937Z,14.15
2023-04-04T18:57:15.336Z,14.70
2023-04-04T18:59:43.597Z,15.80
2023-04-04T19:02:13.040Z,17.38
2023-04-04T19:04:41.980Z,18.20
2023-04-04T19:07:12.637Z,21.50
2023-04-04T19:09:42.441Z,22.30
2023-04-04T19:12:10.748Z,24.08
2023-04-04T19:14:38.995Z,25.60
2023-04-04T19:17:07.234Z,23.65
2023-04-04T19:19:36.706Z,20.42
2023-04-04T19:22:05.149Z,30.02
2023-04-04T19:24:33.220Z,26.38
2023-04-04T19:27:02.535Z,26.75
2023-04-04T19:29:32.054Z,32.33
2023-04-04T19:32:03.605Z,29.38
2023-04-04T19:34:32.408Z,33.50
2023-04-04T19:37:01.873Z,30.55
2023-04-04T19:42:02.589Z,23.50
2023-04-04T19:44:31.351Z,26.05
2023-04-04T19:47:01.022Z,30.80
2023-04-04T19:49:30.609Z,29.15
2023-04-04T19:54:29.954Z,32.60
2023-04-04T19:57:03.465Z,26.30
2023-04-04T20:00:01.741Z,27.45
2023-04-04T20:02:57.009Z,18.67
2023-04-04T20:05:57.924Z,22.02
2023-04-04T20:08:33.974Z,15.55
2023-04-04T20:11:03.659Z,18.27
2023-04-04T20:13:32.758Z,15.48
2023-04-04T20:16:06.324Z,15.85
2023-04-04T20:18:35.633Z,17.85
2023-04-04T20:21:07.355Z,20.30
2023-04-04T20:23:45.905Z,15.98
2023-04-04T20:26:43.714Z,16.52
2023-04-04T20:29:13.913Z,16.15
2023-04-04T20:31:44.743Z,14.98
2023-04-04T20:34:32.919Z,18.23
2023-04-04T20:37:02.080Z,19.05
2023-04-04T20:39:40.512Z,19.20
2023-04-04T20:42:34.856Z,16.90
2023-04-04T20:45:14.412Z,18.38
2023-04-04T20:50:46.241Z,14.18
2023-04-04T20:53:20.994Z,15.90
2023-04-04T20:55:53.334Z,17.10
2023-04-04T20:58:32.162Z,19.73
2023-04-04T21:01:01.701Z,18.65
2023-04-04T21:03:49.938Z,14.27
2023-04-04T21:06:18.124Z,14.90
2023-04-04T21:08:47.684Z,18.63
2023-04-04T21:13:48.740Z,13.57
2023-04-04T21:18:46.346Z,8.82
2023-04-04T21:21:18.542Z,14.23
2023-04-04T21:23:52.513Z,9.35
2023-04-04T21:26:29.507Z,9.68
2023-04-04T21:29:00.812Z,9.32
2023-04-04T21:31:35.576Z,10.35
2023-04-04T21:34:09.597Z,8.82
2023-04-04T21:36:37.740Z,10.27
2023-04-04T21:39:10.668Z,9.40
2023-04-04T21:41:38.790Z,10.75
2023-04-04T21:44:09.948Z,10.25
2023-04-04T21:46:39.438Z,12.43
2023-04-04T21:49:08.550Z,10.13
2023-04-04T21:51:37.298Z,7.60
2023-04-04T21:54:05.649Z,10.80
2023-04-04T21:56:33.853Z,14.68
2023-04-04T21:59:03.947Z,9.90
2023-04-04T22:01:33.524Z,12.05
2023-04-04T22:06:30.809Z,9.48
2023-04-04T22:09:00.060Z,10.15
2023-04-04T22:11:29.040Z,7.43
2023-04-04T22:14:04.370Z,13.25
2023-04-04T22:16:39.086Z,9.98
2023-04-04T22:19:10.789Z,11.43
2023-04-04T22:21:39.183Z,10.35
2023-04-04T22:24:09.975Z,8.88
2023-04-04T22:26:41.628Z,11.25
2023-04-04T22:29:09.920Z,10.20
2023-04-04T22:31:39.355Z,14.48
2023-04-04T22:34:07.504Z,10.95
2023-04-04T22:36:38.552Z,9.48
2023-04-04T22:39:06.625Z,11.23
2023-04-04T22:41:34.695Z,10.23
2023-04-04T22:44:02.770Z,9.20
2023-04-04T22:46:32.183Z,15.73
2023-04-04T22:49:06.640Z,18.38
2023-04-04T22:51:43.117Z,18.67
2023-04-04T22:54:12.921Z,21.17
2023-04-04T22:56:41.708Z,20.02
2023-04-04T22:59:09.847Z,15.60
2023-04-04T23:01:38.231Z,18.48
2023-04-04T23:04:08.032Z,15.43
2023-04-04T23:06:38.343Z,20.73
2023-04-04T23:09:07.740Z,16.88
2023-04-04T23:11:36.441Z,15.30
2023-04-04T23:14:08.619Z,11.85
2023-04-04T23:16:37.206Z,17.83
2023-04-04T23:19:07.512Z,19.08
2023-04-04T23:21:36.593Z,16.02
2023-04-04T23:24:04.978Z,17.33
2023-04-04T23:26:33.517Z,18.20
2023-04-04T23:29:02.089Z,12.90
2023-04-04T23:31:30.652Z,28.25
2023-04-04T23:33:59.785Z,15.10
2023-04-04T23:36:29.386Z,18.90
2023-04-04T23:38:57.494Z,20.92
2023-04-04T23:41:26.279Z,18.90
2023-04-04T23:43:54.562Z,21.55
2023-04-04T23:46:23.808Z,27.63
2023-04-04T23:48:51.944Z,17.38
2023-04-04T23:51:20.016Z,18.42
2023-04-04T23:53:49.434Z,13.88
2023-04-04T23:58:46.121Z,16.35
